Time;durP1;ratioP1;P1;durP2;ratioP2;P2;SDS_P1;SDS_P2;PMS_P1;PMS_P2;Temp;Humidity;BMP_temperature;BMP_pressure;BME280_temperature;BME280_humidity;BME280_pressure;Samples;Min_cycle;Max_cycle;Signal;HPM_P1;HPM_P2
2019/04/21 00:01:41;;;;;;;8.8;6.2;;;;;;;;;;;;;
2019/04/21 00:04:06;;;;;;;11.3;6.1;;;;;;;;;;;;;
2019/04/21 00:06:31;;;;;;;13.4;7.2;;;;;;;;;;;;;
2019/04/21 00:08:56;;;;;;;10.4;6.9;;;;;;;;;;;;;
2019/04/21 00:11:22;;;;;;;12.4;7.3;;;;;;;;;;;;;
2019/04/21 00:13:47;;;;;;;11.8;6.9;;;;;;;;;;;;;
2019/04/21 00:16:12;;;;;;;7.7;5.1;;;;;;;;;;;;;
2019/04/21 00:18:46;;;;;;;7.3;4.3;;;;;;;;;;;;;
2019/04/21 00:21:02;;;;;;;7.3;4.7;;;;;;;;;;;;;
2019/04/21 00:23:30;;;;;;;6.7;4.5;;;;;;;;;;;;;
2019/04/21 00:25:53;;;;;;;8.3;4.8;;;;;;;;;;;;;
2019/04/21 00:28:18;;;;;;;7.4;5.2;;;;;;;;;;;;;
2019/04/21 00:30:43;;;;;;;8.6;5.4;;;;;;;;;;;;;
2019/04/21 00:33:08;;;;;;;12.3;6.6;;;;;;;;;;;;;
2019/04/21 00:35:33;;;;;;;10.2;5.6;;;;;;;;;;;;;
2019/04/21 00:37:58;;;;;;;10.8;5.9;;;;;;;;;;;;;
2019/04/21 00:40:23;;;;;;;9.8;5.9;;;;;;;;;;;;;
2019/04/21 00:42:49;;;;;;;9.4;5.9;;;;;;;;;;;;;
2019/04/21 00:45:14;;;;;;;9;5.6;;;;;;;;;;;;;
2019/04/21 00:47:42;;;;;;;7.7;5.1;;;;;;;;;;;;;
2019/04/21 00:50:04;;;;;;;8.3;5.7;;;;;;;;;;;;;
2019/04/21 00:53:08;;;;;;;8.7;4.9;;;;;;;;;;;;;
2019/04/21 00:54:58;;;;;;;7.3;4.6;;;;;;;;;;;;;
2019/04/21 00:57:20;;;;;;;8.6;5.1;;;;;;;;;;;;;
2019/04/21 00:59:45;;;;;;;5.8;4.5;;;;;;;;;;;;;
2019/04/21 01:02:10;;;;;;;6.8;4.3;;;;;;;;;;;;;
2019/04/21 01:04:35;;;;;;;9.7;4.6;;;;;;;;;;;;;
2019/04/21 01:07:00;;;;;;;9.9;4.9;;;;;;;;;;;;;
2019/04/21 01:09:25;;;;;;;8.3;5;;;;;;;;;;;;;
2019/04/21 01:11:51;;;;;;;9.8;4.7;;;;;;;;;;;;;
2019/04/21 01:14:16;;;;;;;9.3;4.6;;;;;;;;;;;;;
2019/04/21 01:16:42;;;;;;;8.4;4.8;;;;;;;;;;;;;
2019/04/21 01:19:07;;;;;;;6.7;4.9;;;;;;;;;;;;;
2019/04/21 01:21:33;;;;;;;10.8;5.6;;;;;;;;;;;;;
2019/04/21 01:23:58;;;;;;;10.8;5.3;;;;;;;;;;;;;
2019/04/21 01:26:23;;;;;;;7.9;5;;;;;;;;;;;;;
2019/04/21 01:28:48;;;;;;;8.4;5;;;;;;;;;;;;;
2019/04/21 01:31:13;;;;;;;7.2;5.1;;;;;;;;;;;;;
2019/04/21 01:33:39;;;;;;;9;5.6;;;;;;;;;;;;;
2019/04/21 01:36:04;;;;;;;9.1;5.3;;;;;;;;;;;;;
2019/04/21 01:38:29;;;;;;;9.4;5.7;;;;;;;;;;;;;
2019/04/21 01:40:54;;;;;;;8.1;5.3;;;;;;;;;;;;;
2019/04/21 01:43:19;;;;;;;8.4;5.2;;;;;;;;;;;;;
2019/04/21 01:45:45;;;;;;;10.8;5.2;;;;;;;;;;;;;
2019/04/21 01:48:10;;;;;;;9.3;5.5;;;;;;;;;;;;;
2019/04/21 01:50:35;;;;;;;8.5;5.4;;;;;;;;;;;;;
2019/04/21 01:53:12;;;;;;;9.3;5.3;;;;;;;;;;;;;
2019/04/21 01:57:59;;;;;;;9.6;5.3;;;;;;;;;;;;;
2019/04/21 02:00:27;;;;;;;6.5;5;;;;;;;;;;;;;
2019/04/21 02:02:41;;;;;;;7.3;5.1;;;;;;;;;;;;;
2019/04/21 02:05:06;;;;;;;9;4.6;;;;;;;;;;;;;
2019/04/21 02:07:31;;;;;;;7.4;4.6;;;;;;;;;;;;;
2019/04/21 02:09:56;;;;;;;7.2;4.5;;;;;;;;;;;;;
2019/04/21 02:12:22;;;;;;;6.7;4.8;;;;;;;;;;;;;
2019/04/21 02:14:47;;;;;;;5.8;4.3;;;;;;;;;;;;;
2019/04/21 02:17:12;;;;;;;6.3;4.7;;;;;;;;;;;;;
2019/04/21 02:19:37;;;;;;;7.8;4.8;;;;;;;;;;;;;
2019/04/21 02:22:02;;;;;;;7.2;4.4;;;;;;;;;;;;;
2019/04/21 02:24:28;;;;;;;6.9;4.2;;;;;;;;;;;;;
2019/04/21 02:26:53;;;;;;;5;4.4;;;;;;;;;;;;;
2019/04/21 02:29:18;;;;;;;8.3;4.7;;;;;;;;;;;;;
2019/04/21 02:31:43;;;;;;;6.2;4.5;;;;;;;;;;;;;
2019/04/21 02:34:08;;;;;;;7.6;5;;;;;;;;;;;;;
2019/04/21 02:36:33;;;;;;;6.6;4.6;;;;;;;;;;;;;
2019/04/21 02:38:59;;;;;;;6.2;5;;;;;;;;;;;;;
2019/04/21 02:41:24;;;;;;;6.9;5;;;;;;;;;;;;;
2019/04/21 02:43:49;;;;;;;5.5;4.4;;;;;;;;;;;;;
2019/04/21 02:46:14;;;;;;;7.4;4.5;;;;;;;;;;;;;
2019/04/21 02:48:39;;;;;;;7.3;4.3;;;;;;;;;;;;;
2019/04/21 02:51:05;;;;;;;7.7;4.3;;;;;;;;;;;;;
2019/04/21 02:53:30;;;;;;;8.7;4.6;;;;;;;;;;;;;
2019/04/21 02:55:55;;;;;;;6.3;4.6;;;;;;;;;;;;;
2019/04/21 02:58:25;;;;;;;7.6;4.7;;;;;;;;;;;;;
2019/04/21 03:05:42;;;;;;;7.2;4.4;;;;;;;;;;;;;
2019/04/21 03:08:01;;;;;;;6.9;4.8;;;;;;;;;;;;;
2019/04/21 03:10:26;;;;;;;7.4;4.2;;;;;;;;;;;;;
2019/04/21 03:12:51;;;;;;;12;4.7;;;;;;;;;;;;;
2019/04/21 03:15:16;;;;;;;6.7;4.5;;;;;;;;;;;;;
2019/04/21 03:17:41;;;;;;;5.7;4.8;;;;;;;;;;;;;
2019/04/21 03:20:06;;;;;;;15.3;6;;;;;;;;;;;;;
2019/04/21 03:22:32;;;;;;;7.5;5;;;;;;;;;;;;;
2019/04/21 03:24:57;;;;;;;8.7;4.9;;;;;;;;;;;;;
2019/04/21 03:27:22;;;;;;;5.6;4.4;;;;;;;;;;;;;
2019/04/21 03:29:48;;;;;;;7.4;4.6;;;;;;;;;;;;;
2019/04/21 03:32:13;;;;;;;8.6;4.9;;;;;;;;;;;;;
2019/04/21 03:34:38;;;;;;;9.2;4.8;;;;;;;;;;;;;
2019/04/21 03:37:03;;;;;;;8.8;5.2;;;;;;;;;;;;;
2019/04/21 03:39:28;;;;;;;9.9;5.1;;;;;;;;;;;;;
2019/04/21 03:41:54;;;;;;;10.6;4.7;;;;;;;;;;;;;
2019/04/21 03:44:19;;;;;;;5.6;4.5;;;;;;;;;;;;;
2019/04/21 03:46:44;;;;;;;6.1;3.8;;;;;;;;;;;;;
2019/04/21 03:49:09;;;;;;;6.1;4.4;;;;;;;;;;;;;
2019/04/21 03:51:34;;;;;;;6.4;4.3;;;;;;;;;;;;;
2019/04/21 03:53:59;;;;;;;8.1;4.7;;;;;;;;;;;;;
2019/04/21 03:56:26;;;;;;;10.8;4.8;;;;;;;;;;;;;
2019/04/21 03:58:51;;;;;;;9.5;4.4;;;;;;;;;;;;;
2019/04/21 04:03:24;;;;;;;7.7;4.7;;;;;;;6.34;71.90039;942.5278;;;;
2019/04/21 04:08:11;;;;;;;8.9;4.6;;;;;;;6.44;71.62207;942.5676;;;;
2019/04/21 04:10:29;;;;;;;9.3;4.6;;;;;;;6.48;71.44824;942.5136;;;;
2019/04/21 04:12:54;;;;;;;6.3;4.6;;;;;;;6.49;71.46289;942.5804;;;;
2019/04/21 04:15:19;;;;;;;8.1;4;;;;;;;6.44;71.26172;942.5969;;;;
2019/04/21 04:17:44;;;;;;;6.5;4;;;;;;;6.39;71.05078;942.5493;;;;
2019/04/21 04:20:10;;;;;;;6.7;4.1;;;;;;;6.4;71.21973;942.6333;;;;
2019/04/21 04:22:36;;;;;;;6;4.1;;;;;;;6.49;70.62402;942.5891;;;;
2019/04/21 04:25:04;;;;;;;5.8;4.1;;;;;;;6.5;71.07813;942.6184;;;;
2019/04/21 04:27:26;;;;;;;8.9;4.5;;;;;;;6.41;71.43652;942.5991;;;;
2019/04/21 04:30:01;;;;;;;6.8;3.7;;;;;;;6.67;69.07129;942.6267;;;;
2019/04/21 04:32:26;;;;;;;7.2;5.3;;;;;;;6.44;70.93164;942.6395;;;;
2019/04/21 04:34:51;;;;;;;4.8;3.7;;;;;;;6.37;70.93262;942.5848;;;;
2019/04/21 04:37:16;;;;;;;7.8;4.3;;;;;;;6.43;70.63672;942.5601;;;;
2019/04/21 04:40:01;;;;;;;6.9;4;;;;;;;6.3;71.2959;942.6278;;;;
2019/04/21 04:42:29;;;;;;;5.7;4;;;;;;;6.21;71.17676;942.5584;;;;
2019/04/21 04:44:47;;;;;;;8.1;4.7;;;;;;;6.25;70.69824;942.5045;;;;
2019/04/21 04:47:12;;;;;;;9.8;6.1;;;;;;;6.41;70.61133;942.4306;;;;
2019/04/21 04:49:40;;;;;;;5.5;4.4;;;;;;;6.3;70.02734;942.4678;;;;
2019/04/21 04:52:05;;;;;;;6.1;4.1;;;;;;;6.4;69.45605;942.4395;;;;
2019/04/21 04:54:31;;;;;;;9.2;5.6;;;;;;;6.57;68.5332;942.3976;;;;
2019/04/21 04:56:56;;;;;;;10;5.7;;;;;;;6.94;67.5166;942.384;;;;
2019/04/21 04:59:21;;;;;;;8.4;4.3;;;;;;;7.01;67.2793;942.3072;;;;
2019/04/21 05:01:46;;;;;;;7;4.7;;;;;;;7.31;66.58887;942.2932;;;;
2019/04/21 05:04:11;;;;;;;6.9;3.9;;;;;;;7.13;66.41504;942.3061;;;;
2019/04/21 05:06:36;;;;;;;8.4;4.4;;;;;;;7.14;66.6543;942.4323;;;;
2019/04/21 05:09:01;;;;;;;5.9;4.1;;;;;;;7.19;66.59375;942.4369;;;;
2019/04/21 05:11:27;;;;;;;6.5;4.2;;;;;;;6.87;67.8457;942.4099;;;;
2019/04/21 05:13:52;;;;;;;7.1;4.6;;;;;;;6.64;68.95215;942.363;;;;
2019/04/21 05:16:17;;;;;;;6.4;4.4;;;;;;;6.73;69.11426;942.2977;;;;
2019/04/21 05:18:42;;;;;;;6.9;3.7;;;;;;;6.92;67.59375;942.2332;;;;
2019/04/21 05:21:08;;;;;;;7.3;3.4;;;;;;;7;66.29297;942.1595;;;;
2019/04/21 05:23:33;;;;;;;4.5;2.9;;;;;;;7.59;63.51563;942.1744;;;;
2019/04/21 05:26:00;;;;;;;5.5;3.1;;;;;;;7.84;62.59766;942.2408;;;;
2019/04/21 05:28:23;;;;;;;4.1;2.8;;;;;;;8.16;61.38574;942.2153;;;;
2019/04/21 05:33:26;;;;;;;11;5.4;;;;;;;9.6;56.54199;942.1252;;;;
2019/04/21 05:36:02;;;;;;;7.4;4.2;;;;;;;11.44;50.7666;942.0369;;;;
2019/04/21 05:38:11;;;;;;;7.9;4.3;;;;;;;12.67;48.32813;942.0796;;;;
2019/04/21 05:40:31;;;;;;;6.4;4.2;;;;;;;14.22;43.71094;941.9474;;;;
2019/04/21 05:42:56;;;;;;;7.9;4;;;;;;;15.33;40.92383;941.9258;;;;
2019/04/21 05:45:22;;;;;;;10.3;4.4;;;;;;;16.11;39.16992;941.9705;;;;
2019/04/21 05:48:12;;;;;;;5;3.1;;;;;;;16.18;38.95703;941.8639;;;;
2019/04/21 05:50:16;;;;;;;3.8;2.3;;;;;;;15.99;37.37793;941.7563;;;;
2019/04/21 05:52:41;;;;;;;3.6;2.1;;;;;;;16.35;36.70215;941.7128;;;;
2019/04/21 05:55:09;;;;;;;4.7;2.3;;;;;;;16.13;36.84668;941.7067;;;;
2019/04/21 05:57:35;;;;;;;5;2.3;;;;;;;16.07;36.27539;941.6364;;;;
2019/04/21 06:00:00;;;;;;;3.6;2.2;;;;;;;15.43;37.88574;941.6626;;;;
2019/04/21 06:02:25;;;;;;;3.9;2.5;;;;;;;14.31;40.44824;941.712;;;;
2019/04/21 06:04:50;;;;;;;6.9;3.2;;;;;;;14.65;40.95215;941.6945;;;;
2019/04/21 06:07:15;;;;;;;9.3;3;;;;;;;14.86;40.58008;941.6592;;;;
2019/04/21 06:09:41;;;;;;;5.7;2.4;;;;;;;15.59;37.95703;941.5642;;;;
2019/04/21 06:12:06;;;;;;;8.2;2.7;;;;;;;16.08;37.10938;941.519;;;;
2019/04/21 06:14:32;;;;;;;5.6;2.1;;;;;;;16.9;35.3125;941.509;;;;
2019/04/21 06:16:57;;;;;;;3.4;2.3;;;;;;;17.16;34.78809;941.4456;;;;
2019/04/21 06:19:23;;;;;;;3.5;2;;;;;;;16.52;35.72168;941.4103;;;;
2019/04/21 06:21:48;;;;;;;5.1;2;;;;;;;16.48;35.8457;941.3809;;;;
2019/04/21 06:24:14;;;;;;;3.2;2.1;;;;;;;16.32;35.75195;941.3819;;;;
2019/04/21 06:26:41;;;;;;;3.8;2.1;;;;;;;16.58;34.63867;941.356;;;;
2019/04/21 06:29:04;;;;;;;5.5;2.2;;;;;;;16.84;34.25391;941.3318;;;;
2019/04/21 06:31:33;;;;;;;3.2;2;;;;;;;17.52;32.17188;941.3092;;;;
2019/04/21 06:33:58;;;;;;;3.7;2;;;;;;;18.35;30.87207;941.2289;;;;
2019/04/21 06:36:31;;;;;;;4.3;2;;;;;;;19.15;29.3457;941.26;;;;
2019/04/21 06:38:57;;;;;;;3.7;2.1;;;;;;;19.55;27.72852;941.1774;;;;
2019/04/21 06:41:25;;;;;;;3.4;2;;;;;;;20.31;26.29395;941.1716;;;;
2019/04/21 06:44:02;;;;;;;3.3;1.6;;;;;;;20.56;27.58203;941.0747;;;;
2019/04/21 06:46:37;;;;;;;4;1.6;;;;;;;21.89;23.80957;941.1893;;;;
2019/04/21 06:49:03;;;;;;;3;1.5;;;;;;;20.78;26.41504;941.1495;;;;
2019/04/21 06:51:28;;;;;;;3.1;1.5;;;;;;;21.73;25.2998;941.085;;;;
2019/04/21 06:53:53;;;;;;;2.1;1.5;;;;;;;22.94;22.59766;941.0471;;;;
2019/04/21 06:56:19;;;;;;;2.6;1.3;;;;;;;22.15;23.82324;941.1116;;;;
2019/04/21 06:58:45;;;;;;;5.1;1.6;;;;;;;21.78;24.50684;941.1086;;;;
2019/04/21 07:01:13;;;;;;;1.6;1.4;;;;;;;22.45;23.64063;941.0831;;;;
2019/04/21 07:03:38;;;;;;;5.1;1.5;;;;;;;22.37;22.5332;941.0115;;;;
2019/04/21 07:06:03;;;;;;;3.3;1.5;;;;;;;21.99;23.42773;940.9761;;;;
2019/04/21 07:08:28;;;;;;;3.2;1.7;;;;;;;22.73;23.08008;940.9843;;;;
2019/04/21 07:11:03;;;;;;;2;1.5;;;;;;;22.82;22.27441;940.8679;;;;
2019/04/21 07:13:44;;;;;;;2.8;1.7;;;;;;;22.63;22.25293;940.8993;;;;
2019/04/21 07:16:09;;;;;;;2.8;1.5;;;;;;;21.21;24.5918;940.8603;;;;
2019/04/21 07:18:38;;;;;;;3;1.5;;;;;;;21.76;24.24707;940.8873;;;;
2019/04/21 07:21:21;;;;;;;2.2;1.5;;;;;;;22.5;23.65527;940.8381;;;;
2019/04/21 07:23:46;;;;;;;2.4;1.6;;;;;;;23.35;23.55859;940.8153;;;;
2019/04/21 07:26:11;;;;;;;5.7;1.5;;;;;;;25.18;22.53418;940.7335;;;;
2019/04/21 07:28:39;;;;;;;2.6;1.5;;;;;;;26.02;19.71387;940.742;;;;
2019/04/21 07:31:04;;;;;;;2.4;1.4;;;;;;;26.42;20.78613;940.7601;;;;
2019/04/21 07:33:31;;;;;;;2.5;1.5;;;;;;;24.09;21.80762;940.6933;;;;
2019/04/21 07:35:58;;;;;;;3;1.6;;;;;;;25.1;22.54199;940.7029;;;;
2019/04/21 07:38:24;;;;;;;2.1;1.4;;;;;;;25.43;21.57813;940.6049;;;;
2019/04/21 07:40:50;;;;;;;2.5;1.3;;;;;;;27.61;19.80762;940.6177;;;;
2019/04/21 07:43:15;;;;;;;2.2;1.3;;;;;;;29.08;17.19336;940.6125;;;;
2019/04/21 07:45:40;;;;;;;2.5;1.3;;;;;;;28.78;18.76465;940.5782;;;;
2019/04/21 07:48:08;;;;;;;3.9;1.5;;;;;;;30.1;18.60449;940.5092;;;;
2019/04/21 07:50:36;;;;;;;1.9;1.4;;;;;;;30.73;18.02148;940.5591;;;;
2019/04/21 07:52:59;;;;;;;4;1.4;;;;;;;32.27;16.0918;940.5722;;;;
2019/04/21 07:55:21;;;;;;;2;1.3;;;;;;;32.36;17.34277;940.6071;;;;
2019/04/21 07:57:46;;;;;;;2.2;1.4;;;;;;;31.91;17.26563;940.5683;;;;
2019/04/21 08:00:14;;;;;;;2.9;1.4;;;;;;;31.58;18.00684;940.5479;;;;
2019/04/21 08:02:36;;;;;;;2.9;1.3;;;;;;;32.06;17.13965;940.5109;;;;
2019/04/21 08:05:02;;;;;;;4.5;1.4;;;;;;;31.04;18.88281;940.4921;;;;
2019/04/21 08:07:27;;;;;;;1.7;1.2;;;;;;;32.3;16.33301;940.4863;;;;
2019/04/21 08:09:58;;;;;;;1.8;1.3;;;;;;;33.31;15.37207;940.3929;;;;
2019/04/21 08:12:23;;;;;;;2.7;1.2;;;;;;;33.49;14.88477;940.4178;;;;
2019/04/21 08:14:48;;;;;;;2;1.4;;;;;;;33.95;13.98535;940.3717;;;;
2019/04/21 08:17:15;;;;;;;1.6;1.2;;;;;;;33.69;15.38477;940.3192;;;;
2019/04/21 08:19:40;;;;;;;1.6;1.3;;;;;;;34.09;14.54297;940.3198;;;;
2019/04/21 08:22:10;;;;;;;1.4;1.1;;;;;;;33.46;13.94629;940.2464;;;;
2019/04/21 08:24:36;;;;;;;1.8;1.1;;;;;;;34.38;13.7334;940.2869;;;;
2019/04/21 08:27:00;;;;;;;1.6;1;;;;;;;35.14;13.53906;940.2727;;;;
2019/04/21 08:29:26;;;;;;;1.8;1.2;;;;;;;35.75;12.54199;940.243;;;;
2019/04/21 08:31:52;;;;;;;3.3;1;;;;;;;33.35;15.36133;940.213;;;;
2019/04/21 08:34:20;;;;;;;2.8;1.2;;;;;;;32.49;15.77637;940.1975;;;;
2019/04/21 08:36:52;;;;;;;2.6;1.1;;;;;;;32.17;16.16016;940.2466;;;;
2019/04/21 08:39:17;;;;;;;1.2;0.9;;;;;;;31.66;15.13672;940.2053;;;;
2019/04/21 08:41:42;;;;;;;2.5;1.1;;;;;;;31.9;16.49902;940.2098;;;;
2019/04/21 08:44:08;;;;;;;2.2;1;;;;;;;31.48;15.83691;940.1321;;;;
2019/04/21 08:46:33;;;;;;;2.4;1.1;;;;;;;31.95;15.03809;940.1264;;;;
2019/04/21 08:49:06;;;;;;;1.1;0.9;;;;;;;32.38;14.45313;940.1652;;;;
2019/04/21 08:51:34;;;;;;;1.5;1;;;;;;;32.3;14.73828;940.1433;;;;
2019/04/21 08:53:58;;;;;;;3.5;1.2;;;;;;;32.62;14.40039;940.1397;;;;
2019/04/21 08:56:35;;;;;;;1.4;1.1;;;;;;;33.6;12.62695;940.0319;;;;
2019/04/21 09:01:25;;;;;;;1.4;1;;;;;;;32.64;13.36914;940.0723;;;;
2019/04/21 09:03:57;;;;;;;1.3;0.9;;;;;;;31.92;14.82129;940.0186;;;;
2019/04/21 09:06:22;;;;;;;1.4;0.9;;;;;;;31.98;12.70215;939.9641;;;;
2019/04/21 09:08:48;;;;;;;2;0.9;;;;;;;29.47;16.0166;939.9351;;;;
2019/04/21 09:11:13;;;;;;;2.2;1.1;;;;;;;30.09;15.63281;939.923;;;;
2019/04/21 09:13:38;;;;;;;1.3;1;;;;;;;30.96;14.89746;939.8563;;;;
2019/04/21 09:16:03;;;;;;;1.5;1.1;;;;;;;29.5;15.93457;939.8117;;;;
2019/04/21 09:18:28;;;;;;;1.4;1;;;;;;;29.03;15.84668;939.8206;;;;
2019/04/21 09:20:54;;;;;;;2.5;0.9;;;;;;;29.15;17.98242;939.7781;;;;
2019/04/21 09:23:18;;;;;;;2.4;1.3;;;;;;;29.32;17.32227;939.7292;;;;
2019/04/21 09:25:44;;;;;;;1.7;1.1;;;;;;;29.35;15.90527;939.7227;;;;
2019/04/21 09:28:09;;;;;;;3.5;1;;;;;;;28.83;15.57715;939.7272;;;;
2019/04/21 09:30:35;;;;;;;1.2;1.1;;;;;;;27.41;17.02344;939.7604;;;;
2019/04/21 09:33:00;;;;;;;1.9;1.1;;;;;;;28.2;16.7207;939.7469;;;;
2019/04/21 09:35:25;;;;;;;5.2;1.1;;;;;;;28.34;17.1416;939.7236;;;;
2019/04/21 09:37:53;;;;;;;2.8;1.2;;;;;;;29.11;15.88477;939.698;;;;
2019/04/21 09:40:16;;;;;;;2;1.2;;;;;;;28.41;16.03906;939.6992;;;;
2019/04/21 09:42:43;;;;;;;8.3;1.2;;;;;;;28.47;17.94336;939.6724;;;;
2019/04/21 09:45:08;;;;;;;3.2;1.2;;;;;;;27.77;19.33984;939.6942;;;;
2019/04/21 09:47:33;;;;;;;1.6;1.4;;;;;;;27.71;19.04102;939.6426;;;;
2019/04/21 09:49:58;;;;;;;4.1;1.3;;;;;;;28.17;17.56348;939.6328;;;;
2019/04/21 09:52:24;;;;;;;2.7;1.3;;;;;;;28.2;17.83789;939.6199;;;;
2019/04/21 09:54:49;;;;;;;1.7;1.4;;;;;;;27.9;18.53809;939.6039;;;;
2019/04/21 09:57:14;;;;;;;2.3;1.5;;;;;;;28.54;18.29102;939.5902;;;;
2019/04/21 09:59:40;;;;;;;1.9;1.5;;;;;;;27.5;20.43164;939.492;;;;
2019/04/21 10:02:05;;;;;;;3.6;1.5;;;;;;;27.5;20.74023;939.479;;;;
2019/04/21 10:04:30;;;;;;;4.2;1.6;;;;;;;27.74;20.12305;939.4844;;;;
2019/04/21 10:06:55;;;;;;;2.9;1.7;;;;;;;27.73;20.57324;939.4425;;;;
2019/04/21 10:09:20;;;;;;;2;1.5;;;;;;;27.32;20.51855;939.4428;;;;
2019/04/21 10:11:46;;;;;;;2.5;1.5;;;;;;;27.18;22.19629;939.3467;;;;
2019/04/21 10:14:11;;;;;;;7.7;1.7;;;;;;;27.18;22.24316;939.4305;;;;
2019/04/21 10:19:04;;;;;;;3.2;1.7;;;;;;;27.53;21.43066;939.3563;;;;
2019/04/21 10:21:42;;;;;;;2.9;1.7;;;;;;;27.55;20.65918;939.2712;;;;
2019/04/21 10:24:09;;;;;;;2.6;1.6;;;;;;;28.21;20.39355;939.291;;;;
2019/04/21 10:26:34;;;;;;;2.9;1.7;;;;;;;28.2;21.83105;939.2831;;;;
2019/04/21 10:29:00;;;;;;;3;1.8;;;;;;;28.27;21.17969;939.3038;;;;
2019/04/21 10:31:25;;;;;;;2.6;1.9;;;;;;;28.28;20.87109;939.2015;;;;
2019/04/21 10:33:52;;;;;;;2.5;1.7;;;;;;;27.2;23.37109;939.1442;;;;
2019/04/21 10:36:17;;;;;;;3.1;1.9;;;;;;;26.97;22.10254;939.1803;;;;
2019/04/21 10:38:42;;;;;;;3.2;1.9;;;;;;;27.59;22.43066;939.1761;;;;
2019/04/21 10:41:08;;;;;;;4.8;1.9;;;;;;;27.98;22.55664;939.1057;;;;
2019/04/21 10:43:33;;;;;;;3.4;1.9;;;;;;;28.01;22.33203;939.0692;;;;
2019/04/21 10:45:58;;;;;;;5.9;2.7;;;;;;;28.02;23.60352;939.068;;;;
2019/04/21 10:48:26;;;;;;;6.2;2.8;;;;;;;28.22;24.21973;938.9791;;;;
2019/04/21 10:50:48;;;;;;;5.1;2.5;;;;;;;28.84;21.94434;938.9562;;;;
2019/04/21 10:53:17;;;;;;;2.9;2.2;;;;;;;29.47;20.64063;938.991;;;;
2019/04/21 10:55:38;;;;;;;4.9;2.2;;;;;;;29.67;21.11523;938.847;;;;
2019/04/21 10:58:11;;;;;;;4.1;2.3;;;;;;;29.67;20.70996;938.8156;;;;
2019/04/21 11:00:28;;;;;;;5.7;2.5;;;;;;;30.21;19.68359;938.8332;;;;
2019/04/21 11:03:23;;;;;;;6.3;2.6;;;;;;;30.1;19.1416;938.7874;;;;
2019/04/21 11:05:18;;;;;;;9.6;2.1;;;;;;;29.2;21.33105;938.8426;;;;
2019/04/21 11:07:52;;;;;;;4.1;2.3;;;;;;;29.03;20.84766;938.7924;;;;
2019/04/21 11:10:08;;;;;;;3.8;2.5;;;;;;;29.34;21.05176;938.7277;;;;
2019/04/21 11:12:34;;;;;;;3.7;2.1;;;;;;;28.86;22.41016;938.7639;;;;
2019/04/21 11:14:59;;;;;;;4.2;2;;;;;;;28.7;21.87793;938.6774;;;;
2019/04/21 11:17:26;;;;;;;2.5;1.9;;;;;;;28.59;22.39648;938.6557;;;;
2019/04/21 11:19:50;;;;;;;4.4;1.9;;;;;;;29.18;19.47266;938.605;;;;
2019/04/21 11:22:15;;;;;;;4.9;2;;;;;;;29.63;20.3623;938.5381;;;;
2019/04/21 11:24:40;;;;;;;3.5;2.1;;;;;;;29.55;19.30957;938.5735;;;;
2019/04/21 11:27:05;;;;;;;3.3;1.9;;;;;;;28.85;20.67188;938.4986;;;;
2019/04/21 11:29:30;;;;;;;3.9;1.7;;;;;;;29;20.01172;938.5006;;;;
2019/04/21 11:31:56;;;;;;;3.1;1.8;;;;;;;30.03;18.51855;938.4308;;;;
2019/04/21 11:34:27;;;;;;;4.7;1.7;;;;;;;29.14;20.57813;938.3279;;;;
2019/04/21 11:36:52;;;;;;;4.7;1.8;;;;;;;28.17;22.30469;938.3276;;;;
2019/04/21 11:39:30;;;;;;;3.3;1.7;;;;;;;28.92;20.38965;938.3351;;;;
2019/04/21 11:42:11;;;;;;;8.1;2.3;;;;;;;30.38;18.38965;938.348;;;;
2019/04/21 11:44:38;;;;;;;2.1;1.6;;;;;;;32.86;14.62402;938.2797;;;;
2019/04/21 11:47:05;;;;;;;4.6;1.7;;;;;;;32.79;16.71094;938.2601;;;;
2019/04/21 11:49:28;;;;;;;3.8;1.8;;;;;;;33.33;15.36035;938.2714;;;;
2019/04/21 11:51:54;;;;;;;4.5;1.7;;;;;;;32.97;15.58887;938.121;;;;
2019/04/21 11:54:19;;;;;;;3.2;1.9;;;;;;;32.24;15.5752;938.176;;;;
2019/04/21 11:56:47;;;;;;;1.8;1.4;;;;;;;29.31;20.34766;938.2039;;;;
2019/04/21 11:59:24;;;;;;;4.5;1.8;;;;;;;27.68;22.29199;938.1903;;;;
2019/04/21 12:01:50;;;;;;;14.8;1.8;;;;;;;26.41;23.23535;938.2355;;;;
2019/04/21 12:04:15;;;;;;;4.1;1.6;;;;;;;26.15;23.88379;938.1715;;;;
2019/04/21 12:06:45;;;;;;;5.8;1.7;;;;;;;26.45;21.58008;938.12;;;;
2019/04/21 12:09:10;;;;;;;7.9;1.7;;;;;;;26.37;21.9668;938.2075;;;;
2019/04/21 12:11:37;;;;;;;4.5;1.5;;;;;;;26.14;24.14453;938.1335;;;;
2019/04/21 12:14:02;;;;;;;2.9;1.6;;;;;;;26.45;22.64551;938.0598;;;;
2019/04/21 12:16:27;;;;;;;5.5;1.7;;;;;;;26.11;23.24316;938.0339;;;;
2019/04/21 12:18:53;;;;;;;6.7;2;;;;;;;25.87;24.51953;938.0278;;;;
2019/04/21 12:21:19;;;;;;;16.5;2.1;;;;;;;26.24;25.48633;938.0489;;;;
2019/04/21 12:23:44;;;;;;;5.2;1.9;;;;;;;26.77;24.03516;937.9917;;;;
2019/04/21 12:26:09;;;;;;;4.4;1.9;;;;;;;26.59;23.28027;937.9373;;;;
2019/04/21 12:28:34;;;;;;;5;1.7;;;;;;;26.44;25.69824;937.9225;;;;
2019/04/21 12:30:59;;;;;;;3;1.6;;;;;;;25.81;25.63965;937.8543;;;;
2019/04/21 12:35:51;;;;;;;7.9;2.1;;;;;;;25.53;25.70605;937.8549;;;;
2019/04/21 12:38:16;;;;;;;3.2;2.3;;;;;;;25.68;23.46973;937.8616;;;;
2019/04/21 12:40:41;;;;;;;4;2.8;;;;;;;25.65;23.50293;937.7355;;;;
2019/04/21 12:43:06;;;;;;;6.1;2;;;;;;;25.34;26.23828;937.7576;;;;
2019/04/21 12:45:32;;;;;;;6.1;2;;;;;;;24.74;25.16602;937.6227;;;;
2019/04/21 12:47:58;;;;;;;5.4;2;;;;;;;24.76;29.18848;937.7065;;;;
2019/04/21 12:50:27;;;;;;;4.1;2.1;;;;;;;25.43;26.08984;937.6223;;;;
2019/04/21 12:52:51;;;;;;;3.2;1.8;;;;;;;25.28;25.51465;937.6537;;;;
2019/04/21 12:55:17;;;;;;;3.6;2;;;;;;;25.49;25.70313;937.6259;;;;
2019/04/21 12:57:45;;;;;;;6.2;1.9;;;;;;;24.94;25.44824;937.5444;;;;
2019/04/21 13:00:14;;;;;;;3;1.8;;;;;;;25.36;26.8418;937.4553;;;;
2019/04/21 13:02:35;;;;;;;8.1;1.9;;;;;;;24.96;27.60742;937.486;;;;
2019/04/21 13:05:05;;;;;;;3.7;1.9;;;;;;;24.64;27.88379;937.4554;;;;
2019/04/21 13:07:27;;;;;;;4.9;1.9;;;;;;;24.45;28.83691;937.4333;;;;
2019/04/21 13:09:52;;;;;;;3.5;2;;;;;;;24.68;26.25879;937.4797;;;;
2019/04/21 13:12:17;;;;;;;4.3;1.9;;;;;;;24.91;25.90625;937.463;;;;
2019/04/21 13:14:42;;;;;;;3.4;2;;;;;;;24.88;24.97266;937.3843;;;;
2019/04/21 13:17:08;;;;;;;3.5;2.2;;;;;;;24.98;24.21094;937.3339;;;;
2019/04/21 13:19:33;;;;;;;6.5;2;;;;;;;25.27;26.15234;937.2898;;;;
2019/04/21 13:21:58;;;;;;;3;1.9;;;;;;;24.92;24.32617;937.3745;;;;
2019/04/21 13:24:23;;;;;;;4.4;2;;;;;;;25.24;24.82715;937.3167;;;;
2019/04/21 13:26:48;;;;;;;3.9;2.2;;;;;;;25.22;23.88184;937.2899;;;;
2019/04/21 13:29:13;;;;;;;4.9;1.9;;;;;;;24.83;26.29004;937.1797;;;;
2019/04/21 13:31:39;;;;;;;3.3;2;;;;;;;24.36;28.26563;937.2074;;;;
2019/04/21 13:34:04;;;;;;;4.4;2.3;;;;;;;24.68;26.14063;937.2842;;;;
2019/04/21 13:36:29;;;;;;;4.1;2.5;;;;;;;24.88;24.97168;937.1548;;;;
2019/04/21 13:39:05;;;;;;;3.7;2.3;;;;;;;25.36;24.05469;937.1071;;;;
2019/04/21 13:41:22;;;;;;;3.7;2.2;;;;;;;24.82;27.19824;937.0455;;;;
2019/04/21 13:44:05;;;;;;;3.2;2;;;;;;;24.63;27.65918;937.0619;;;;
2019/04/21 13:46:12;;;;;;;2.6;1.7;;;;;;;24.36;27.41797;937.0993;;;;
2019/04/21 13:48:53;;;;;;;2.7;2;;;;;;;24.72;26.40234;937.0698;;;;
2019/04/21 13:51:21;;;;;;;4.3;2.1;;;;;;;25.13;24.30176;936.9548;;;;
2019/04/21 13:53:44;;;;;;;20.3;2.5;;;;;;;25.27;25.03027;936.9897;;;;
2019/04/21 13:56:09;;;;;;;5.7;2.2;;;;;;;25.22;25.42871;936.9456;;;;
2019/04/21 13:58:34;;;;;;;2.7;2;;;;;;;25.18;25.03613;936.8433;;;;
2019/04/21 14:01:00;;;;;;;44.9;3.4;;;;;;;24.93;26.62695;936.8689;;;;
2019/04/21 14:03:25;;;;;;;2.5;1.8;;;;;;;25.09;24.76074;936.8655;;;;
2019/04/21 14:05:51;;;;;;;4.2;2.1;;;;;;;24.94;25.3418;936.8365;;;;
2019/04/21 14:08:16;;;;;;;6.5;2.2;;;;;;;24.36;26.2627;936.7907;;;;
2019/04/21 14:10:41;;;;;;;4.1;2;;;;;;;24.47;25.96289;936.7865;;;;
2019/04/21 14:13:06;;;;;;;2.6;1.9;;;;;;;24.57;25.12012;936.7491;;;;
2019/04/21 14:15:31;;;;;;;2.5;2.1;;;;;;;24.55;24.89551;936.7188;;;;
2019/04/21 14:17:56;;;;;;;8.8;2.5;;;;;;;24.48;26.23438;936.7033;;;;
2019/04/21 14:20:22;;;;;;;4.4;2;;;;;;;24.31;27.79199;936.7026;;;;
2019/04/21 14:22:47;;;;;;;6.3;2.1;;;;;;;24.49;26.01172;936.7139;;;;
2019/04/21 14:25:23;;;;;;;3.7;2;;;;;;;24.24;24.80762;936.5616;;;;
2019/04/21 14:27:52;;;;;;;7.2;2;;;;;;;24.28;27.31934;936.6719;;;;
2019/04/21 14:30:15;;;;;;;4.1;2;;;;;;;24.1;28.14453;936.5642;;;;
2019/04/21 14:32:40;;;;;;;2.8;1.8;;;;;;;24.08;25.56445;936.6458;;;;
2019/04/21 14:35:05;;;;;;;3.6;2;;;;;;;24.27;25.71582;936.656;;;;
2019/04/21 14:37:30;;;;;;;5;2;;;;;;;24.32;24.68262;936.6272;;;;
2019/04/21 14:39:58;;;;;;;6.6;2.1;;;;;;;23.83;25.91406;936.6055;;;;
2019/04/21 14:42:23;;;;;;;5.2;2;;;;;;;24.02;26.39648;936.4764;;;;
2019/04/21 14:44:48;;;;;;;3.9;1.9;;;;;;;24.37;25.70996;936.4758;;;;
2019/04/21 14:47:19;;;;;;;4.5;1.9;;;;;;;24.5;25.68164;936.4835;;;;
2019/04/21 14:52:25;;;;;;;5.4;1.9;;;;;;;24.21;25.47754;936.3876;;;;
2019/04/21 14:54:50;;;;;;;5.5;2.1;;;;;;;23.97;25.22852;936.4144;;;;
2019/04/21 14:57:12;;;;;;;2.7;1.9;;;;;;;23.84;25.33789;936.4561;;;;
2019/04/21 14:59:41;;;;;;;4.7;1.9;;;;;;;23.76;24.82715;936.4034;;;;
2019/04/21 15:02:06;;;;;;;4.7;2.1;;;;;;;23.56;25.72266;936.4587;;;;
2019/04/21 15:04:31;;;;;;;2.4;1.9;;;;;;;23.56;26.11035;936.4158;;;;
2019/04/21 15:06:56;;;;;;;4.4;2;;;;;;;23.71;26.47168;936.4364;;;;
2019/04/21 15:09:22;;;;;;;4.7;1.9;;;;;;;23.45;25.56348;936.4227;;;;
2019/04/21 15:11:50;;;;;;;4.5;2;;;;;;;23.37;25.08789;936.3739;;;;
2019/04/21 15:14:15;;;;;;;3.2;2;;;;;;;23.54;24.85059;936.3972;;;;
2019/04/21 15:16:42;;;;;;;3.5;2;;;;;;;23.32;24.8623;936.365;;;;
2019/04/21 15:19:07;;;;;;;3.3;2.1;;;;;;;23.25;25.66895;936.3831;;;;
2019/04/21 15:21:37;;;;;;;5.2;2.2;;;;;;;23.01;26.08984;936.3928;;;;
2019/04/21 15:24:00;;;;;;;7.2;2.2;;;;;;;23.17;27.19141;936.2874;;;;
2019/04/21 15:26:24;;;;;;;4.2;2;;;;;;;23.27;25.14063;936.4628;;;;
2019/04/21 15:28:50;;;;;;;3.4;1.9;;;;;;;23.25;25.87988;936.4102;;;;
2019/04/21 15:31:15;;;;;;;3.2;1.9;;;;;;;22.93;25.60352;936.4131;;;;
2019/04/21 15:33:41;;;;;;;6.1;2;;;;;;;22.91;25.23828;936.3775;;;;
2019/04/21 15:36:07;;;;;;;4.4;2.3;;;;;;;22.98;25.30078;936.3583;;;;
2019/04/21 15:38:32;;;;;;;6.3;2.2;;;;;;;22.99;25.52539;936.3041;;;;
2019/04/21 15:40:57;;;;;;;7.5;2.1;;;;;;;23.2;25.38379;936.2308;;;;
2019/04/21 15:43:24;;;;;;;4.6;2;;;;;;;22.85;25.49414;936.2684;;;;
2019/04/21 15:45:49;;;;;;;4.4;1.9;;;;;;;23.02;25.86719;936.3256;;;;
2019/04/21 15:48:14;;;;;;;3.9;2.2;;;;;;;22.97;26.82715;936.2775;;;;
2019/04/21 15:50:39;;;;;;;5.6;2.2;;;;;;;22.88;25.2832;936.2651;;;;
2019/04/21 15:53:05;;;;;;;3.7;1.9;;;;;;;23.05;25.88086;936.2315;;;;
2019/04/21 16:01:36;;;;;;;4.7;2;;;;;;;22.85;26.04492;936.1995;;;;